sensor_id;sensor_type;location;lat;lon;timestamp;P1;durP1;ratioP1;P2;durP2;ratioP2
40807;SDS011;26523;52.504;13.498;2022-10-31T00:00:55;27.23;;;12.10;;
40807;SDS011;26523;52.504;13.498;2022-10-31T00:03:21;30.65;;;12.32;;
40807;SDS011;26523;52.504;13.498;2022-10-31T00:05:47;27.20;;;13.02;;
40807;SDS011;26523;52.504;13.498;2022-10-31T00:08:14;27.67;;;12.68;;
40807;SDS011;26523;52.504;13.498;2022-10-31T00:10:41;26.15;;;12.60;;
40807;SDS011;26523;52.504;13.498;2022-10-31T00:13:08;28.33;;;13.38;;
40807;SDS011;26523;52.504;13.498;2022-10-31T00:15:35;34.60;;;13.45;;
40807;SDS011;26523;52.504;13.498;2022-10-31T00:18:02;27.05;;;12.27;;
40807;SDS011;26523;52.504;13.498;2022-10-31T00:20:28;26.83;;;12.07;;
40807;SDS011;26523;52.504;13.498;2022-10-31T00:22:56;26.13;;;12.80;;
40807;SDS011;26523;52.504;13.498;2022-10-31T00:25:23;26.65;;;13.02;;
40807;SDS011;26523;52.504;13.498;2022-10-31T00:27:49;29.02;;;12.95;;
40807;SDS011;26523;52.504;13.498;2022-10-31T00:30:14;28.67;;;13.18;;
40807;SDS011;26523;52.504;13.498;2022-10-31T00:32:40;27.83;;;11.40;;
40807;SDS011;26523;52.504;13.498;2022-10-31T00:35:06;28.25;;;12.20;;
40807;SDS011;26523;52.504;13.498;2022-10-31T00:37:31;24.50;;;12.52;;
40807;SDS011;26523;52.504;13.498;2022-10-31T00:39:57;31.35;;;12.82;;
40807;SDS011;26523;52.504;13.498;2022-10-31T00:42:23;22.27;;;10.95;;
40807;SDS011;26523;52.504;13.498;2022-10-31T00:44:48;28.38;;;13.35;;
40807;SDS011;26523;52.504;13.498;2022-10-31T00:47:14;29.70;;;12.48;;
40807;SDS011;26523;52.504;13.498;2022-10-31T00:49:39;29.52;;;12.30;;
40807;SDS011;26523;52.504;13.498;2022-10-31T00:52:05;24.85;;;12.18;;
40807;SDS011;26523;52.504;13.498;2022-10-31T00:54:30;21.73;;;12.32;;
40807;SDS011;26523;52.504;13.498;2022-10-31T00:56:57;31.55;;;12.65;;
40807;SDS011;26523;52.504;13.498;2022-10-31T00:59:23;28.27;;;12.27;;
40807;SDS011;26523;52.504;13.498;2022-10-31T01:01:48;26.98;;;11.50;;
40807;SDS011;26523;52.504;13.498;2022-10-31T01:04:14;24.92;;;12.40;;
40807;SDS011;26523;52.504;13.498;2022-10-31T01:06:40;23.98;;;11.35;;
40807;SDS011;26523;52.504;13.498;2022-10-31T01:09:06;25.08;;;11.45;;
40807;SDS011;26523;52.504;13.498;2022-10-31T01:11:32;25.20;;;12.35;;
40807;SDS011;26523;52.504;13.498;2022-10-31T01:13:57;26.38;;;11.93;;
40807;SDS011;26523;52.504;13.498;2022-10-31T01:16:23;22.25;;;12.32;;
40807;SDS011;26523;52.504;13.498;2022-10-31T01:18:50;27.48;;;12.43;;
40807;SDS011;26523;52.504;13.498;2022-10-31T01:21:17;24.80;;;11.77;;
40807;SDS011;26523;52.504;13.498;2022-10-31T01:23:47;27.00;;;11.50;;
40807;SDS011;26523;52.504;13.498;2022-10-31T01:26:17;20.10;;;11.20;;
40807;SDS011;26523;52.504;13.498;2022-10-31T01:28:50;28.83;;;12.25;;
40807;SDS011;26523;52.504;13.498;2022-10-31T01:31:18;20.98;;;10.27;;
40807;SDS011;26523;52.504;13.498;2022-10-31T01:33:45;29.67;;;12.32;;
40807;SDS011;26523;52.504;13.498;2022-10-31T01:36:16;22.05;;;11.60;;
40807;SDS011;26523;52.504;13.498;2022-10-31T01:38:45;20.83;;;12.55;;
40807;SDS011;26523;52.504;13.498;2022-10-31T01:41:14;31.95;;;12.57;;
40807;SDS011;26523;52.504;13.498;2022-10-31T01:43:42;33.35;;;12.82;;
40807;SDS011;26523;52.504;13.498;2022-10-31T01:46:08;27.13;;;11.73;;
40807;SDS011;26523;52.504;13.498;2022-10-31T01:48:34;23.88;;;11.82;;
40807;SDS011;26523;52.504;13.498;2022-10-31T01:50:59;33.28;;;12.60;;
40807;SDS011;26523;52.504;13.498;2022-10-31T01:53:25;26.48;;;13.38;;
40807;SDS011;26523;52.504;13.498;2022-10-31T01:55:51;29.80;;;12.43;;
40807;SDS011;26523;52.504;13.498;2022-10-31T01:58:22;38.13;;;13.02;;
40807;SDS011;26523;52.504;13.498;2022-10-31T02:00:52;22.65;;;11.68;;
40807;SDS011;26523;52.504;13.498;2022-10-31T02:03:22;23.90;;;11.68;;
40807;SDS011;26523;52.504;13.498;2022-10-31T02:05:49;27.10;;;12.00;;
40807;SDS011;26523;52.504;13.498;2022-10-31T02:08:19;27.67;;;12.27;;
40807;SDS011;26523;52.504;13.498;2022-10-31T02:10:53;33.92;;;12.98;;
40807;SDS011;26523;52.504;13.498;2022-10-31T02:13:19;32.00;;;13.00;;
40807;SDS011;26523;52.504;13.498;2022-10-31T02:15:47;26.40;;;13.52;;
40807;SDS011;26523;52.504;13.498;2022-10-31T02:18:17;26.67;;;13.18;;
40807;SDS011;26523;52.504;13.498;2022-10-31T02:26:43;28.05;;;12.60;;
40807;SDS011;26523;52.504;13.498;2022-10-31T02:32:25;25.60;;;12.85;;
40807;SDS011;26523;52.504;13.498;2022-10-31T02:37:50;27.08;;;12.27;;
40807;SDS011;26523;52.504;13.498;2022-10-31T02:40:48;31.88;;;12.40;;
40807;SDS011;26523;52.504;13.498;2022-10-31T02:43:20;31.88;;;13.02;;
40807;SDS011;26523;52.504;13.498;2022-10-31T02:45:57;34.78;;;12.50;;
40807;SDS011;26523;52.504;13.498;2022-10-31T02:48:32;32.38;;;12.77;;
40807;SDS011;26523;52.504;13.498;2022-10-31T02:51:02;26.80;;;12.73;;
40807;SDS011;26523;52.504;13.498;2022-10-31T02:53:33;27.48;;;11.00;;
40807;SDS011;26523;52.504;13.498;2022-10-31T02:58:26;23.23;;;11.95;;
40807;SDS011;26523;52.504;13.498;2022-10-31T03:01:07;27.13;;;12.88;;
40807;SDS011;26523;52.504;13.498;2022-10-31T03:06:32;27.65;;;12.40;;
40807;SDS011;26523;52.504;13.498;2022-10-31T03:14:40;30.70;;;13.73;;
40807;SDS011;26523;52.504;13.498;2022-10-31T03:17:09;25.80;;;12.57;;
40807;SDS011;26523;52.504;13.498;2022-10-31T03:19:41;27.13;;;12.07;;
40807;SDS011;26523;52.504;13.498;2022-10-31T03:22:14;23.38;;;11.10;;
40807;SDS011;26523;52.504;13.498;2022-10-31T03:24:49;26.00;;;11.48;;
40807;SDS011;26523;52.504;13.498;2022-10-31T03:27:18;26.50;;;12.85;;
40807;SDS011;26523;52.504;13.498;2022-10-31T03:29:50;23.60;;;10.23;;
40807;SDS011;26523;52.504;13.498;2022-10-31T03:32:30;22.10;;;11.18;;
40807;SDS011;26523;52.504;13.498;2022-10-31T03:35:01;34.80;;;12.60;;
40807;SDS011;26523;52.504;13.498;2022-10-31T03:37:29;24.20;;;10.77;;
40807;SDS011;26523;52.504;13.498;2022-10-31T03:39:58;35.50;;;12.13;;
40807;SDS011;26523;52.504;13.498;2022-10-31T03:42:27;24.92;;;11.50;;
40807;SDS011;26523;52.504;13.498;2022-10-31T03:44:58;23.00;;;10.75;;
40807;SDS011;26523;52.504;13.498;2022-10-31T03:47:33;31.10;;;11.85;;
40807;SDS011;26523;52.504;13.498;2022-10-31T03:50:02;22.13;;;10.38;;
40807;SDS011;26523;52.504;13.498;2022-10-31T03:52:33;27.50;;;10.85;;
40807;SDS011;26523;52.504;13.498;2022-10-31T03:55:10;22.23;;;10.35;;
40807;SDS011;26523;52.504;13.498;2022-10-31T03:58:09;28.35;;;11.75;;
40807;SDS011;26523;52.504;13.498;2022-10-31T04:00:38;21.27;;;10.52;;
40807;SDS011;26523;52.504;13.498;2022-10-31T04:03:09;25.25;;;11.70;;
40807;SDS011;26523;52.504;13.498;2022-10-31T04:05:38;21.63;;;11.30;;
40807;SDS011;26523;52.504;13.498;2022-10-31T04:08:07;26.55;;;11.43;;
40807;SDS011;26523;52.504;13.498;2022-10-31T04:10:36;27.40;;;10.88;;
40807;SDS011;26523;52.504;13.498;2022-10-31T04:13:07;24.02;;;10.43;;
40807;SDS011;26523;52.504;13.498;2022-10-31T04:15:36;20.00;;;9.80;;
40807;SDS011;26523;52.504;13.498;2022-10-31T04:18:03;23.25;;;10.77;;
40807;SDS011;26523;52.504;13.498;2022-10-31T04:20:33;20.88;;;10.23;;
40807;SDS011;26523;52.504;13.498;2022-10-31T04:23:01;22.38;;;10.57;;
40807;SDS011;26523;52.504;13.498;2022-10-31T04:25:27;20.27;;;9.68;;
40807;SDS011;26523;52.504;13.498;2022-10-31T04:27:53;28.45;;;10.52;;
40807;SDS011;26523;52.504;13.498;2022-10-31T04:30:19;25.70;;;11.05;;
40807;SDS011;26523;52.504;13.498;2022-10-31T04:32:44;22.50;;;10.38;;
40807;SDS011;26523;52.504;13.498;2022-10-31T04:35:10;22.42;;;9.80;;
40807;SDS011;26523;52.504;13.498;2022-10-31T04:37:36;27.10;;;11.35;;
40807;SDS011;26523;52.504;13.498;2022-10-31T04:40:02;20.67;;;10.13;;
40807;SDS011;26523;52.504;13.498;2022-10-31T04:42:31;30.85;;;11.52;;
40807;SDS011;26523;52.504;13.498;2022-10-31T04:44:56;23.13;;;11.00;;
40807;SDS011;26523;52.504;13.498;2022-10-31T04:47:22;24.13;;;10.25;;
40807;SDS011;26523;52.504;13.498;2022-10-31T04:49:47;26.60;;;10.13;;
40807;SDS011;26523;52.504;13.498;2022-10-31T04:52:13;23.80;;;10.60;;
40807;SDS011;26523;52.504;13.498;2022-10-31T04:54:38;26.25;;;9.70;;
40807;SDS011;26523;52.504;13.498;2022-10-31T04:57:04;19.25;;;9.25;;
40807;SDS011;26523;52.504;13.498;2022-10-31T04:59:30;21.20;;;9.57;;
40807;SDS011;26523;52.504;13.498;2022-10-31T05:01:55;27.48;;;10.02;;
40807;SDS011;26523;52.504;13.498;2022-10-31T05:04:21;16.38;;;8.98;;
40807;SDS011;26523;52.504;13.498;2022-10-31T05:06:47;26.35;;;10.90;;
40807;SDS011;26523;52.504;13.498;2022-10-31T05:09:12;30.42;;;12.02;;
40807;SDS011;26523;52.504;13.498;2022-10-31T05:11:38;21.23;;;9.05;;
40807;SDS011;26523;52.504;13.498;2022-10-31T05:14:04;19.20;;;10.07;;
40807;SDS011;26523;52.504;13.498;2022-10-31T05:16:29;22.58;;;10.50;;
40807;SDS011;26523;52.504;13.498;2022-10-31T05:18:55;20.92;;;8.20;;
40807;SDS011;26523;52.504;13.498;2022-10-31T05:21:21;19.70;;;9.93;;
40807;SDS011;26523;52.504;13.498;2022-10-31T05:23:46;22.45;;;9.90;;
40807;SDS011;26523;52.504;13.498;2022-10-31T05:26:12;16.88;;;9.13;;
40807;SDS011;26523;52.504;13.498;2022-10-31T05:28:38;18.55;;;8.60;;
40807;SDS011;26523;52.504;13.498;2022-10-31T05:31:03;16.00;;;8.45;;
40807;SDS011;26523;52.504;13.498;2022-10-31T05:33:29;23.95;;;10.32;;
40807;SDS011;26523;52.504;13.498;2022-10-31T05:35:55;22.08;;;9.23;;
40807;SDS011;26523;52.504;13.498;2022-10-31T05:38:20;22.20;;;9.75;;
40807;SDS011;26523;52.504;13.498;2022-10-31T05:40:46;19.38;;;9.07;;
40807;SDS011;26523;52.504;13.498;2022-10-31T05:43:12;20.90;;;8.90;;
40807;SDS011;26523;52.504;13.498;2022-10-31T05:45:38;19.33;;;8.85;;
40807;SDS011;26523;52.504;13.498;2022-10-31T05:48:03;22.67;;;9.48;;
40807;SDS011;26523;52.504;13.498;2022-10-31T05:50:30;22.05;;;8.98;;
40807;SDS011;26523;52.504;13.498;2022-10-31T05:52:57;31.15;;;12.75;;
40807;SDS011;26523;52.504;13.498;2022-10-31T05:55:24;26.45;;;10.43;;
40807;SDS011;26523;52.504;13.498;2022-10-31T05:57:51;25.40;;;9.45;;
40807;SDS011;26523;52.504;13.498;2022-10-31T06:00:17;20.15;;;9.02;;
40807;SDS011;26523;52.504;13.498;2022-10-31T06:02:43;19.42;;;8.45;;
40807;SDS011;26523;52.504;13.498;2022-10-31T06:05:09;15.52;;;7.63;;
40807;SDS011;26523;52.504;13.498;2022-10-31T06:07:34;19.02;;;9.63;;
40807;SDS011;26523;52.504;13.498;2022-10-31T06:10:02;21.60;;;9.35;;
40807;SDS011;26523;52.504;13.498;2022-10-31T06:12:29;26.02;;;9.85;;
40807;SDS011;26523;52.504;13.498;2022-10-31T06:14:55;17.80;;;8.90;;
40807;SDS011;26523;52.504;13.498;2022-10-31T06:17:20;21.40;;;10.05;;
40807;SDS011;26523;52.504;13.498;2022-10-31T06:19:46;18.48;;;9.05;;
40807;SDS011;26523;52.504;13.498;2022-10-31T06:22:11;18.83;;;9.52;;
40807;SDS011;26523;52.504;13.498;2022-10-31T06:24:37;20.73;;;9.75;;
40807;SDS011;26523;52.504;13.498;2022-10-31T06:27:03;23.50;;;10.32;;
40807;SDS011;26523;52.504;13.498;2022-10-31T06:29:29;20.33;;;8.95;;
40807;SDS011;26523;52.504;13.498;2022-10-31T06:31:55;17.63;;;8.73;;
40807;SDS011;26523;52.504;13.498;2022-10-31T06:34:21;19.77;;;9.52;;
40807;SDS011;26523;52.504;13.498;2022-10-31T06:36:46;17.33;;;8.77;;
40807;SDS011;26523;52.504;13.498;2022-10-31T06:39:13;22.70;;;10.75;;
40807;SDS011;26523;52.504;13.498;2022-10-31T06:41:38;19.45;;;8.27;;
40807;SDS011;26523;52.504;13.498;2022-10-31T06:44:05;28.48;;;8.82;;
40807;SDS011;26523;52.504;13.498;2022-10-31T06:46:31;20.30;;;9.18;;
40807;SDS011;26523;52.504;13.498;2022-10-31T06:48:57;21.60;;;9.43;;
40807;SDS011;26523;52.504;13.498;2022-10-31T06:51:23;25.02;;;9.07;;
40807;SDS011;26523;52.504;13.498;2022-10-31T06:53:48;20.75;;;8.85;;
40807;SDS011;26523;52.504;13.498;2022-10-31T06:56:14;19.77;;;9.15;;
40807;SDS011;26523;52.504;13.498;2022-10-31T06:58:39;20.65;;;9.52;;
40807;SDS011;26523;52.504;13.498;2022-10-31T07:01:05;21.80;;;9.60;;
40807;SDS011;26523;52.504;13.498;2022-10-31T07:03:31;15.82;;;7.95;;
40807;SDS011;26523;52.504;13.498;2022-10-31T07:05:56;16.55;;;9.10;;
40807;SDS011;26523;52.504;13.498;2022-10-31T07:08:22;22.40;;;9.63;;
40807;SDS011;26523;52.504;13.498;2022-10-31T07:10:52;18.80;;;8.55;;
40807;SDS011;26523;52.504;13.498;2022-10-31T07:13:20;23.70;;;8.35;;
40807;SDS011;26523;52.504;13.498;2022-10-31T07:15:50;18.08;;;8.65;;
40807;SDS011;26523;52.504;13.498;2022-10-31T07:18:24;23.50;;;9.82;;
40807;SDS011;26523;52.504;13.498;2022-10-31T07:20:51;18.98;;;8.95;;
40807;SDS011;26523;52.504;13.498;2022-10-31T07:23:17;19.20;;;8.63;;
40807;SDS011;26523;52.504;13.498;2022-10-31T07:25:43;28.38;;;9.95;;
40807;SDS011;26523;52.504;13.498;2022-10-31T07:28:09;18.65;;;8.88;;
40807;SDS011;26523;52.504;13.498;2022-10-31T07:30:35;20.50;;;10.25;;
40807;SDS011;26523;52.504;13.498;2022-10-31T07:33:01;25.27;;;10.85;;
40807;SDS011;26523;52.504;13.498;2022-10-31T07:35:28;31.85;;;11.35;;
40807;SDS011;26523;52.504;13.498;2022-10-31T07:37:54;24.65;;;11.52;;
40807;SDS011;26523;52.504;13.498;2022-10-31T07:40:20;29.85;;;10.98;;
40807;SDS011;26523;52.504;13.498;2022-10-31T07:42:48;27.15;;;10.23;;
40807;SDS011;26523;52.504;13.498;2022-10-31T07:45:17;21.30;;;9.98;;
40807;SDS011;26523;52.504;13.498;2022-10-31T07:47:45;25.73;;;11.70;;
40807;SDS011;26523;52.504;13.498;2022-10-31T07:50:13;23.58;;;11.00;;
40807;SDS011;26523;52.504;13.498;2022-10-31T07:52:40;23.15;;;10.65;;
40807;SDS011;26523;52.504;13.498;2022-10-31T07:55:06;21.98;;;10.52;;
40807;SDS011;26523;52.504;13.498;2022-10-31T07:57:32;28.58;;;10.13;;
40807;SDS011;26523;52.504;13.498;2022-10-31T07:59:58;26.08;;;9.73;;
40807;SDS011;26523;52.504;13.498;2022-10-31T08:02:24;25.92;;;10.30;;
40807;SDS011;26523;52.504;13.498;2022-10-31T08:04:50;27.17;;;10.27;;
40807;SDS011;26523;52.504;13.498;2022-10-31T08:07:15;24.70;;;9.55;;
40807;SDS011;26523;52.504;13.498;2022-10-31T08:09:41;25.00;;;8.32;;
40807;SDS011;26523;52.504;13.498;2022-10-31T08:12:07;20.52;;;9.52;;
40807;SDS011;26523;52.504;13.498;2022-10-31T08:14:33;23.13;;;8.70;;
40807;SDS011;26523;52.504;13.498;2022-10-31T08:16:58;26.92;;;11.02;;
40807;SDS011;26523;52.504;13.498;2022-10-31T08:19:24;21.27;;;8.77;;
40807;SDS011;26523;52.504;13.498;2022-10-31T08:21:50;25.30;;;9.32;;
40807;SDS011;26523;52.504;13.498;2022-10-31T08:24:16;25.02;;;9.77;;
40807;SDS011;26523;52.504;13.498;2022-10-31T08:26:42;28.05;;;10.82;;
40807;SDS011;26523;52.504;13.498;2022-10-31T08:29:08;25.00;;;9.93;;
40807;SDS011;26523;52.504;13.498;2022-10-31T08:31:34;25.73;;;9.15;;
40807;SDS011;26523;52.504;13.498;2022-10-31T08:33:59;23.08;;;9.82;;
40807;SDS011;26523;52.504;13.498;2022-10-31T08:36:26;21.63;;;9.32;;
40807;SDS011;26523;52.504;13.498;2022-10-31T08:38:52;25.30;;;9.10;;
40807;SDS011;26523;52.504;13.498;2022-10-31T08:41:18;18.20;;;8.68;;
40807;SDS011;26523;52.504;13.498;2022-10-31T08:43:44;21.23;;;9.15;;
40807;SDS011;26523;52.504;13.498;2022-10-31T08:46:09;19.40;;;9.07;;
40807;SDS011;26523;52.504;13.498;2022-10-31T08:48:35;26.17;;;9.45;;
40807;SDS011;26523;52.504;13.498;2022-10-31T08:51:01;17.67;;;8.23;;
40807;SDS011;26523;52.504;13.498;2022-10-31T08:53:26;22.75;;;10.40;;
40807;SDS011;26523;52.504;13.498;2022-10-31T08:55:54;20.30;;;9.02;;
40807;SDS011;26523;52.504;13.498;2022-10-31T08:58:21;23.73;;;9.57;;
40807;SDS011;26523;52.504;13.498;2022-10-31T09:00:48;24.83;;;9.93;;
40807;SDS011;26523;52.504;13.498;2022-10-31T09:03:19;16.52;;;8.88;;
40807;SDS011;26523;52.504;13.498;2022-10-31T09:05:47;20.33;;;9.25;;
40807;SDS011;26523;52.504;13.498;2022-10-31T09:08:13;23.98;;;9.88;;
40807;SDS011;26523;52.504;13.498;2022-10-31T09:10:39;30.88;;;11.18;;
40807;SDS011;26523;52.504;13.498;2022-10-31T09:13:06;25.98;;;8.80;;
40807;SDS011;26523;52.504;13.498;2022-10-31T09:15:36;24.52;;;9.27;;
40807;SDS011;26523;52.504;13.498;2022-10-31T09:18:04;28.20;;;9.93;;
40807;SDS011;26523;52.504;13.498;2022-10-31T09:20:30;22.02;;;9.10;;
40807;SDS011;26523;52.504;13.498;2022-10-31T09:25:24;21.70;;;10.45;;
40807;SDS011;26523;52.504;13.498;2022-10-31T09:27:50;24.98;;;9.95;;
40807;SDS011;26523;52.504;13.498;2022-10-31T09:30:16;28.15;;;9.77;;
40807;SDS011;26523;52.504;13.498;2022-10-31T09:32:42;28.25;;;9.80;;
40807;SDS011;26523;52.504;13.498;2022-10-31T09:35:08;22.77;;;11.13;;
40807;SDS011;26523;52.504;13.498;2022-10-31T09:37:33;24.92;;;11.15;;
40807;SDS011;26523;52.504;13.498;2022-10-31T09:39:59;25.05;;;10.73;;
40807;SDS011;26523;52.504;13.498;2022-10-31T09:42:29;22.00;;;9.90;;
40807;SDS011;26523;52.504;13.498;2022-10-31T09:53:23;29.50;;;10.20;;
40807;SDS011;26523;52.504;13.498;2022-10-31T09:55:56;29.27;;;10.57;;
40807;SDS011;26523;52.504;13.498;2022-10-31T09:58:25;28.10;;;9.88;;
40807;SDS011;26523;52.504;13.498;2022-10-31T10:01:02;25.02;;;11.77;;
40807;SDS011;26523;52.504;13.498;2022-10-31T10:08:36;25.50;;;11.70;;
40807;SDS011;26523;52.504;13.498;2022-10-31T10:11:13;34.55;;;12.75;;
40807;SDS011;26523;52.504;13.498;2022-10-31T10:19:21;24.40;;;11.13;;
40807;SDS011;26523;52.504;13.498;2022-10-31T10:22:02;32.10;;;13.57;;
40807;SDS011;26523;52.504;13.498;2022-10-31T10:27:10;25.38;;;13.07;;
40807;SDS011;26523;52.504;13.498;2022-10-31T10:30:21;30.92;;;12.80;;
40807;SDS011;26523;52.504;13.498;2022-10-31T10:32:59;28.35;;;13.07;;
40807;SDS011;26523;52.504;13.498;2022-10-31T10:35:31;35.45;;;13.35;;
40807;SDS011;26523;52.504;13.498;2022-10-31T10:38:03;35.17;;;14.05;;
40807;SDS011;26523;52.504;13.498;2022-10-31T10:40:42;31.77;;;13.57;;
40807;SDS011;26523;52.504;13.498;2022-10-31T10:43:19;32.05;;;14.82;;
40807;SDS011;26523;52.504;13.498;2022-10-31T10:48:41;31.58;;;14.30;;
40807;SDS011;26523;52.504;13.498;2022-10-31T10:59:13;37.50;;;13.73;;
40807;SDS011;26523;52.504;13.498;2022-10-31T11:01:41;29.52;;;13.43;;
40807;SDS011;26523;52.504;13.498;2022-10-31T11:04:27;37.80;;;13.73;;
40807;SDS011;26523;52.504;13.498;2022-10-31T11:07:05;32.88;;;14.98;;
40807;SDS011;26523;52.504;13.498;2022-10-31T11:09:33;35.70;;;14.02;;
40807;SDS011;26523;52.504;13.498;2022-10-31T11:12:05;37.53;;;14.68;;
40807;SDS011;26523;52.504;13.498;2022-10-31T11:14:35;34.92;;;12.73;;
40807;SDS011;26523;52.504;13.498;2022-10-31T11:17:39;33.63;;;13.50;;
40807;SDS011;26523;52.504;13.498;2022-10-31T11:22:48;32.10;;;13.27;;
40807;SDS011;26523;52.504;13.498;2022-10-31T11:25:23;33.90;;;12.85;;
40807;SDS011;26523;52.504;13.498;2022-10-31T11:28:00;33.95;;;12.32;;
40807;SDS011;26523;52.504;13.498;2022-10-31T11:30:31;32.25;;;13.43;;
40807;SDS011;26523;52.504;13.498;2022-10-31T11:33:11;35.63;;;13.15;;
40807;SDS011;26523;52.504;13.498;2022-10-31T11:35:46;42.95;;;13.95;;
40807;SDS011;26523;52.504;13.498;2022-10-31T11:38:20;28.10;;;13.30;;
40807;SDS011;26523;52.504;13.498;2022-10-31T11:40:51;30.88;;;12.95;;
40807;SDS011;26523;52.504;13.498;2022-10-31T11:43:19;28.20;;;13.02;;
40807;SDS011;26523;52.504;13.498;2022-10-31T11:45:45;31.17;;;13.35;;
40807;SDS011;26523;52.504;13.498;2022-10-31T11:48:18;30.25;;;13.80;;
40807;SDS011;26523;52.504;13.498;2022-10-31T11:50:48;31.83;;;12.40;;
40807;SDS011;26523;52.504;13.498;2022-10-31T11:56:10;35.13;;;12.97;;
40807;SDS011;26523;52.504;13.498;2022-10-31T11:58:39;26.52;;;12.80;;
40807;SDS011;26523;52.504;13.498;2022-10-31T12:01:05;25.52;;;12.18;;
40807;SDS011;26523;52.504;13.498;2022-10-31T12:06:18;25.63;;;13.48;;
40807;SDS011;26523;52.504;13.498;2022-10-31T12:08:48;34.42;;;14.93;;
40807;SDS011;26523;52.504;13.498;2022-10-31T12:22:36;31.85;;;13.57;;
40807;SDS011;26523;52.504;13.498;2022-10-31T12:27:42;34.53;;;13.68;;
40807;SDS011;26523;52.504;13.498;2022-10-31T12:30:20;34.42;;;14.95;;
40807;SDS011;26523;52.504;13.498;2022-10-31T12:38:46;30.92;;;13.35;;
40807;SDS011;26523;52.504;13.498;2022-10-31T12:49:14;36.30;;;14.32;;
40807;SDS011;26523;52.504;13.498;2022-10-31T12:59:45;34.83;;;13.32;;
40807;SDS011;26523;52.504;13.498;2022-10-31T13:02:20;32.17;;;14.98;;
40807;SDS011;26523;52.504;13.498;2022-10-31T13:04:57;35.53;;;12.70;;
40807;SDS011;26523;52.504;13.498;2022-10-31T13:10:18;25.48;;;12.90;;
40807;SDS011;26523;52.504;13.498;2022-10-31T13:12:48;26.58;;;13.52;;
40807;SDS011;26523;52.504;13.498;2022-10-31T13:15:26;32.25;;;12.38;;
40807;SDS011;26523;52.504;13.498;2022-10-31T13:17:56;27.27;;;13.00;;
40807;SDS011;26523;52.504;13.498;2022-10-31T13:20:28;28.27;;;13.32;;
40807;SDS011;26523;52.504;13.498;2022-10-31T13:23:03;29.23;;;11.82;;
40807;SDS011;26523;52.504;13.498;2022-10-31T13:25:52;28.55;;;12.88;;
40807;SDS011;26523;52.504;13.498;2022-10-31T13:28:36;31.38;;;12.05;;
40807;SDS011;26523;52.504;13.498;2022-10-31T13:31:21;35.15;;;13.15;;
40807;SDS011;26523;52.504;13.498;2022-10-31T13:33:54;30.02;;;12.18;;
40807;SDS011;26523;52.504;13.498;2022-10-31T13:39:01;29.00;;;12.10;;
40807;SDS011;26523;52.504;13.498;2022-10-31T13:41:43;29.25;;;13.77;;
40807;SDS011;26523;52.504;13.498;2022-10-31T13:44:26;30.33;;;13.40;;
40807;SDS011;26523;52.504;13.498;2022-10-31T13:46:53;31.08;;;13.07;;
40807;SDS011;26523;52.504;13.498;2022-10-31T13:49:23;38.13;;;13.55;;
40807;SDS011;26523;52.504;13.498;2022-10-31T13:51:49;32.08;;;12.80;;
40807;SDS011;26523;52.504;13.498;2022-10-31T13:54:30;32.92;;;12.40;;
40807;SDS011;26523;52.504;13.498;2022-10-31T13:56:58;28.13;;;12.48;;
40807;SDS011;26523;52.504;13.498;2022-10-31T13:59:30;31.98;;;12.48;;
40807;SDS011;26523;52.504;13.498;2022-10-31T14:02:00;30.83;;;12.15;;
40807;SDS011;26523;52.504;13.498;2022-10-31T14:04:38;33.47;;;13.25;;
40807;SDS011;26523;52.504;13.498;2022-10-31T14:07:13;36.25;;;14.20;;
40807;SDS011;26523;52.504;13.498;2022-10-31T14:09:50;30.20;;;13.18;;
40807;SDS011;26523;52.504;13.498;2022-10-31T14:12:29;32.47;;;13.75;;
40807;SDS011;26523;52.504;13.498;2022-10-31T14:15:18;45.42;;;13.75;;
40807;SDS011;26523;52.504;13.498;2022-10-31T14:17:57;29.02;;;12.45;;
40807;SDS011;26523;52.504;13.498;2022-10-31T14:22:50;28.95;;;13.57;;
40807;SDS011;26523;52.504;13.498;2022-10-31T14:25:26;33.53;;;13.30;;
40807;SDS011;26523;52.504;13.498;2022-10-31T14:28:01;29.67;;;13.45;;
40807;SDS011;26523;52.504;13.498;2022-10-31T14:30:50;32.17;;;14.82;;
40807;SDS011;26523;52.504;13.498;2022-10-31T14:33:18;32.83;;;13.15;;
40807;SDS011;26523;52.504;13.498;2022-10-31T14:35:53;29.27;;;12.95;;
40807;SDS011;26523;52.504;13.498;2022-10-31T14:38:37;39.42;;;14.55;;
40807;SDS011;26523;52.504;13.498;2022-10-31T14:44:08;34.95;;;14.02;;
40807;SDS011;26523;52.504;13.498;2022-10-31T14:46:44;34.63;;;14.18;;
40807;SDS011;26523;52.504;13.498;2022-10-31T14:49:26;36.35;;;14.05;;
40807;SDS011;26523;52.504;13.498;2022-10-31T14:52:02;30.48;;;13.85;;
40807;SDS011;26523;52.504;13.498;2022-10-31T14:54:33;34.83;;;14.00;;
40807;SDS011;26523;52.504;13.498;2022-10-31T14:57:05;39.95;;;14.88;;
40807;SDS011;26523;52.504;13.498;2022-10-31T14:59:48;34.35;;;15.55;;
40807;SDS011;26523;52.504;13.498;2022-10-31T15:02:26;36.22;;;14.52;;
40807;SDS011;26523;52.504;13.498;2022-10-31T15:04:59;32.13;;;13.95;;
40807;SDS011;26523;52.504;13.498;2022-10-31T15:07:26;31.67;;;13.70;;
40807;SDS011;26523;52.504;13.498;2022-10-31T15:09:58;30.98;;;13.77;;
40807;SDS011;26523;52.504;13.498;2022-10-31T15:12:26;30.75;;;14.07;;
40807;SDS011;26523;52.504;13.498;2022-10-31T15:14:54;31.77;;;12.98;;
40807;SDS011;26523;52.504;13.498;2022-10-31T15:17:20;39.38;;;14.52;;
40807;SDS011;26523;52.504;13.498;2022-10-31T15:19:47;28.90;;;12.48;;
40807;SDS011;26523;52.504;13.498;2022-10-31T15:22:14;31.00;;;13.57;;
40807;SDS011;26523;52.504;13.498;2022-10-31T15:24:42;30.83;;;13.13;;
40807;SDS011;26523;52.504;13.498;2022-10-31T15:27:12;35.40;;;14.38;;
40807;SDS011;26523;52.504;13.498;2022-10-31T15:29:50;30.05;;;13.75;;
40807;SDS011;26523;52.504;13.498;2022-10-31T15:32:18;33.25;;;15.02;;
40807;SDS011;26523;52.504;13.498;2022-10-31T15:34:46;42.80;;;15.73;;
40807;SDS011;26523;52.504;13.498;2022-10-31T15:37:12;35.28;;;14.10;;
40807;SDS011;26523;52.504;13.498;2022-10-31T15:39:42;42.95;;;15.52;;
40807;SDS011;26523;52.504;13.498;2022-10-31T15:44:46;38.17;;;14.38;;
40807;SDS011;26523;52.504;13.498;2022-10-31T15:47:16;36.80;;;15.65;;
40807;SDS011;26523;52.504;13.498;2022-10-31T15:49:54;37.60;;;14.75;;
40807;SDS011;26523;52.504;13.498;2022-10-31T15:52:25;31.35;;;14.52;;
40807;SDS011;26523;52.504;13.498;2022-10-31T15:55:04;36.63;;;15.43;;
40807;SDS011;26523;52.504;13.498;2022-10-31T15:57:47;35.50;;;15.93;;
40807;SDS011;26523;52.504;13.498;2022-10-31T16:05:39;40.95;;;16.58;;
40807;SDS011;26523;52.504;13.498;2022-10-31T16:08:47;40.05;;;16.80;;
40807;SDS011;26523;52.504;13.498;2022-10-31T16:13:41;53.38;;;18.80;;
40807;SDS011;26523;52.504;13.498;2022-10-31T16:16:17;48.65;;;17.02;;
40807;SDS011;26523;52.504;13.498;2022-10-31T16:18:45;43.22;;;16.63;;
40807;SDS011;26523;52.504;13.498;2022-10-31T16:21:11;45.00;;;18.02;;
40807;SDS011;26523;52.504;13.498;2022-10-31T16:23:38;46.67;;;17.23;;
40807;SDS011;26523;52.504;13.498;2022-10-31T16:26:09;45.47;;;18.13;;
40807;SDS011;26523;52.504;13.498;2022-10-31T16:28:35;43.53;;;17.23;;